Sonic Adventure (DX): Overall Rankings

Records: Times | Rings | Scores | Races | Bosses | Freestyle
Leaders: Times | Rings | Scores | Races | Bosses | Freestyle | Overall
Rank Player Percent Points Date Grade
1 Sonicspeedruner 98.4% 249 04-25-15 S
2 Gamepro011 97.6% 390 04-25-15 A
3 DarkPolarNight 96.3% 590 04-25-15 A
4 Jawzun 93.9% 982 04-25-15 A
5 Dashjump 91.8% 1327 04-25-15 A
6 DarkspinesSonic 90.8% 1483 04-25-15 A
7 Avento128bits 90.3% 1564 04-25-15 A
8 ike6252 90.2% 1591 04-25-15 A
9 F-Man 86.1% 2259 04-25-15 A
10 HyperSonic7701 85.1% 2416 04-25-15 A
11 Coolfansonic 84.0% 2597 04-25-15 A
12 yoshifan 83.5% 2672 04-25-15 A
13 frankoredstrato 83.1% 2738 04-25-15 A
14 TheRealShadnic 82.1% 2902 04-25-15 A
15 francisco 82.1% 2903 04-25-15 A
16 Marth 81.8% 2956 04-25-15 A
17 InferSaime 80.4% 3176 04-25-15 A
18 PfoSonic 80.1% 3234 04-25-15 A
19 Paragod 79.5% 3318 04-25-15 B
20 THC98 78.4% 3506 04-25-15 B
21 Stefan 76.3% 3852 04-25-15 B
22 RPGnutter 74.0% 4222 04-25-15 B
23 bertin 73.9% 4231 04-25-15 B
24 sonicam 71.7% 4599 04-25-15 B
25 Combo 65.6% 5581 04-25-15 B
26 SkyLights 64.5% 5767 04-25-15 B
27 xXMegaManXx 63.6% 5910 04-25-15 B
28 Diamond 62.8% 6040 04-25-15 B
29 GerbilSoft 60.3% 6442 04-25-15 B
30 OmegaDJ 60.3% 6446 04-25-15 B
31 Auriman1 60.2% 6459 04-25-15 B
32 magnum12 59.3% 6610 04-25-15 C
33 Dawid8404 59.1% 6636 04-25-15 C
34 drminus 59.0% 6653 04-25-15 C
35 Thorn 57.2% 6945 04-25-15 C
36 P1 Pause 57.0% 6987 04-25-15 C
37 mike89 55.7% 7188 04-25-15 C
38 chainchumper 54.1% 7461 04-25-15 C
39 Groudon199 53.9% 7491 04-25-15 C
40 Dave Cramer 53.9% 7494 04-25-15 C
41 Parax 53.3% 7580 04-25-15 C
42 Shadow Jacky 52.8% 7672 04-25-15 C
43 Psymar 47.6% 8517 04-25-15 C
44 Chao_Fan 45.8% 8808 04-25-15 C
45 Arch 45.5% 8847 04-25-15 C
46 mauserman 45.5% 8862 04-25-15 C
47 Quartz 44.7% 8991 04-25-15 C
48 teamblackarms 43.6% 9156 04-25-15 C
49 Psyknux 43.5% 9178 04-25-15 C
50 James_Bertolli 42.9% 9280 04-25-15 C
51 NintenDan 42.3% 9369 04-25-15 C
52 Fr3nZy 41.8% 9457 04-25-15 C
53 Webber3000 41.8% 9460 04-25-15 C
54 Turbos 41.6% 9484 04-25-15 C
55 Ring Rush 41.6% 9490 04-25-15 C
56 Cream147 41.3% 9532 04-25-15 C
57 videogamemaster777 41.2% 9546 04-25-15 C
58 Siavash Tazari 41.0% 9581 04-25-15 C
59 buddychaos0415 40.6% 9657 04-25-15 C
60 SadisticMystic 39.9% 9761 04-25-15 D
61 eggFL 39.1% 9902 04-25-15 D
62 Redd 38.6% 9974 04-25-15 D
63 SB737 37.5% 10162 04-25-15 D
64 supersonicfan 36.3% 10355 04-25-15 D
65 FuzZerd 35.3% 10519 04-25-15 D
66 elecmouse101 34.5% 10642 04-25-15 D
67 supersonic465 34.4% 10664 04-25-15 D
68 Austinf 33.6% 10791 04-25-15 D
69 metanightmare22 32.9% 10908 04-25-15 D
70 Aitamen 32.9% 10911 04-25-15 D
71 dabestgamer 32.7% 10933 04-25-15 D
72 MiStEr_ShAoLiN 32.6% 10953 04-25-15 D
73 Cyan Ryan 32.6% 10959 04-25-15 D
74 itsPersonnal 31.8% 11080 04-25-15 D
75 Cybrax 30.9% 11228 04-25-15 D
76 Andrea Ritsu 30.6% 11283 04-25-15 D
77 danieldude 30.5% 11297 04-25-15 D
78 SilvertheAlmighty 30.4% 11306 04-25-15 D
79 VMU Player Banned 28.8% 11568 04-25-15 D
80 Omega Rafael Santos 28.4% 11630 04-25-15 D
81 Staf 28.1% 11680 04-25-15 D
82 The T 27.9% 11714 04-25-15 D
83 EngiNerd 27.6% 11764 04-25-15 D
84 lordmetalsonic 26.9% 11884 04-25-15 D
85 Hipertails12 26.7% 11904 04-25-15 D
86 welldooder64 26.2% 11991 04-25-15 D
87 GreatStar 26.2% 11992 04-25-15 D
88 Sondow 26.2% 11996 04-25-15 D
89 The Great Lord Mick 25.9% 12042 04-25-15 D
90 Mastakirby 25.9% 12047 04-25-15 D
91 LinksDarkArrows 25.7% 12072 04-25-15 D
92 Nimrod 25.5% 12113 04-25-15 D
93 Skylace 24.8% 12224 04-25-15 D
94 Rolken 23.3% 12457 04-25-15 D
95 Xia 21.8% 12708 04-25-15 D
96 Kogen Player Banned 21.7% 12722 04-25-15 D
97 Spinballwizard 21.6% 12742 04-25-15 D
98 Don 21.3% 12786 04-25-15 D
99 Miles9999 21.3% 12797 04-25-15 D
100 Cutiefox 21.2% 12802 04-25-15 D
101 f0rever_zer0 21.1% 12826 04-25-15 D
101 Game_Complete 21.1% 12826 04-25-15 D
103 andres430 20.4% 12937 04-25-15 D
104 Cruizer 20.3% 12950 04-25-15 D
105 iSonicKid2K 20.1% 12984 04-25-15 D
106 SADXTryHard 19.8% 13040 04-25-15 E
107 GarnetPrincess 19.4% 13103 04-25-15 E
108 knuckles_sonic8 18.8% 13198 04-25-15 E
109 Team_Yoshi 18.3% 13282 04-25-15 E
110 KinkyCadence 18.0% 13320 04-25-15 E
111 The Knuckles Chao 17.8% 13359 04-25-15 E
112 Termon 17.7% 13376 04-25-15 E
113 FoxBoy 17.6% 13386 04-25-15 E
114 LittleBigness 17.3% 13435 04-25-15 E
115 SonicWinDX 17.1% 13479 04-25-15 E
116 Sonic Singularity 15.5% 13732 04-25-15 E
117 Pokemonmaster888 15.5% 13738 04-25-15 E
118 BigAL49 14.5% 13903 04-25-15 E
119 SilverSonic 14.3% 13932 04-25-15 E
120 MPit08 14.2% 13945 04-25-15 E
121 WeegeeZV 14.1% 13965 04-25-15 E
122 Mo Player Banned 14.0% 13973 04-25-15 E
123 Cod4Scopes 13.5% 14064 04-25-15 E
124 HyperSonic64 13.3% 14099 04-25-15 E
125 booo95 13.2% 14113 04-25-15 E
126 Chawkk 13.1% 14130 04-25-15 E
127 paulie9990 12.9% 14160 04-25-15 E
127 SuperSonic101 12.9% 14160 04-25-15 E
129 Hunters13 12.9% 14163 04-25-15 E
130 Maxinfamily 12.6% 14197 04-25-15 E
131 PsyBorg 12.5% 14228 04-25-15 E
132 Flying Fox 12.5% 14229 04-25-15 E
133 Kanimayo_Jp 12.4% 14234 04-25-15 E
134 BrokenArthritis 12.3% 14248 04-25-15 E
135 LilZero 12.1% 14282 04-25-15 E
136 a_moustache 11.8% 14335 04-25-15 E
137 Therio 11.8% 14343 04-25-15 E
138 Drakodan 11.7% 14356 04-25-15 E
139 sonicspeed 11.6% 14364 04-25-15 E
140 douglas 11.5% 14388 04-25-15 E
141 Matt_TY 11.2% 14440 04-25-15 E
142 joecoolgames 10.5% 14539 04-25-15 E
143 Cooljay 10.5% 14542 04-25-15 E
144 SeaWolf 10.4% 14558 04-25-15 E
145 TFEC Headshot 9.9% 14642 04-25-15 E
146 welshmoose05 9.8% 14659 04-25-15 E
147 crazy1993 9.5% 14701 04-25-15 E
148 Mcshuggets 9.5% 14704 04-25-15 E
149 videogamer1014 9.2% 14752 04-25-15 E
150 imazor017 9.2% 14763 04-25-15 E
151 nuckrieg 9.0% 14785 04-25-15 E
152 niscool 9.0% 14792 04-25-15 E
153 SonicAD 9.0% 14793 04-25-15 E
154 SirTobbii 8.9% 14810 04-25-15 E
155 Shadowthegreat 8.7% 14837 04-25-15 E
155 superjupi 8.7% 14837 04-25-15 E
157 SaviourDC 8.4% 14884 04-25-15 E
158 iarebored 8.4% 14889 04-25-15 E
159 sonamyfan666 8.3% 14901 04-25-15 E
160 Werey 8.3% 14912 04-25-15 E
161 SonicKnuckles 8.2% 14925 04-25-15 E
162 adf 7.9% 14972 04-25-15 E
163 ArcticDragon 7.8% 14980 04-25-15 E
164 Megaman EXE565 7.7% 15000 04-25-15 E
165 Platformer 7.4% 15054 04-25-15 E
166 FocusSight64 7.3% 15069 04-25-15 E
167 wheatrich 7.2% 15084 04-25-15 E
168 timpkmn89 7.2% 15087 04-25-15 E
169 Swift Hobo 7.2% 15091 04-25-15 E
170 Rickyman48 7.0% 15110 04-25-15 E
171 KitsuneYamaro 6.7% 15158 04-25-15 E
172 Triseena 6.6% 15178 04-25-15 E
173 CyberShadow 6.5% 15202 04-25-15 E
174 Mariobutch 6.4% 15218 04-25-15 E
175 slade23 6.4% 15219 04-25-15 E
176 dShadow 6.4% 15220 04-25-15 E
176 Starlight Sable 6.4% 15220 04-25-15 E
178 IsisDazs 6.2% 15249 04-25-15 E
179 BlankTH 6.0% 15276 04-25-15 E
180 Monkeh 5.8% 15318 04-25-15 E
181 Richied 5.7% 15326 04-25-15 E
182 DaDude 5.6% 15346 04-25-15 E
183 sonicd5 5.5% 15363 04-25-15 E
184 Zip 5.4% 15370 04-25-15 E
185 Kirbymon30 5.1% 15422 04-25-15 E
185 tal39h 5.1% 15422 04-25-15 E
187 soniccoloursunleashed 4.8% 15472 04-25-15 E
188 Drflash55 4.8% 15475 04-25-15 E
189 Yish 4.6% 15499 04-25-15 E
190 neaolas 4.6% 15503 04-25-15 E
191 Bass 4.6% 15504 04-25-15 E
192 UninspiredUsername 4.5% 15518 04-25-15 E
193 superiorsonic 4.5% 15520 04-25-15 E
194 Sonicsuperstar1 4.5% 15521 04-25-15 E
195 zapp 4.5% 15528 04-25-15 E
196 gamefreak1292 4.4% 15541 04-25-15 E
197 SonicU260 4.1% 15591 04-25-15 E
198 Chaos_Overlord 4.1% 15593 04-25-15 E
199 ethmar 4.0% 15597 04-25-15 E
200 TakaRikka 4.0% 15609 04-25-15 E
201 Valfore 3.9% 15616 04-25-15 E
202 ShinigamiMachine 3.8% 15641 04-25-15 E
203 Regano1000 3.7% 15654 04-25-15 E
204 MK 3.6% 15670 04-25-15 E
205 Ace747 3.5% 15683 04-25-15 E
206 Illidan 3.2% 15730 04-25-15 E
207 Venick409 3.1% 15744 04-25-15 E
208 Brian_pso 3.1% 15753 04-25-15 E
209 Sithwarrior26 3.0% 15762 04-25-15 E
210 ingx24 2.9% 15781 04-25-15 E
210 TheChaosEmeraIds 2.9% 15781 04-25-15 E
212 SkyBon 2.8% 15793 04-25-15 E
213 Nickson98 2.8% 15794 04-25-15 E
214 Fozer 2.7% 15807 04-25-15 E
215 FSSRandomvids 2.7% 15808 04-25-15 E
216 sonic29887 2.7% 15812 04-25-15 E
217 Colomb_30 2.7% 15816 04-25-15 E
218 TheUltraBlur 2.6% 15831 04-25-15 E
219 1stKirbyever 2.5% 15843 04-25-15 E
220 Th4tN1nj4Turtl3 2.3% 15875 04-25-15 E
221 Cort_pso 2.3% 15877 04-25-15 E
222 Doom-9 2.3% 15884 04-25-15 E
223 ieatatsonic 2.2% 15891 04-25-15 E
224 Mariosonic15 2.2% 15894 04-25-15 E
225 SuperSonic71087 2.2% 15903 04-25-15 E
226 MStitomix 2.1% 15909 04-25-15 E
227 HermitHelmet 2.1% 15916 04-25-15 E
228 Artie 2.0% 15928 04-25-15 E
229 Got4n 2.0% 15929 04-25-15 E
230 Jose_15 1.9% 15939 04-25-15 E
230 Questionguy555 1.9% 15939 04-25-15 E
232 djmat 1.9% 15953 04-25-15 E
233 sonicandamy 1.7% 15972 04-25-15 E
233 SuperSonicfan9595 1.7% 15972 04-25-15 E
235 LancexExWx 1.7% 15978 04-25-15 E
236 son1cgu1tar 1.7% 15982 04-25-15 E
237 Heroes_Hater 1.7% 15984 04-25-15 E
238 Paixii 1.6% 15987 04-25-15 E
239 BallzeH 1.5% 16004 04-25-15 E
240 Mankster101 1.5% 16009 04-25-15 E
241 BecauseWarAnvil 1.5% 16013 04-25-15 E
242 Jamixesa 1.5% 16014 04-25-15 E
243 Crydio 1.4% 16019 04-25-15 E
244 Shanekilz 1.4% 16023 04-25-15 E
245 SpiritDragon1995 1.4% 16024 04-25-15 E
246 ReuelBrony 1.4% 16031 04-25-15 E
247 stanski 1.3% 16037 04-25-15 E
248 MarewBFN 1.3% 16041 04-25-15 E
249 Sonique Hedgehog 1.3% 16046 04-25-15 E
250 Blue Infamy 1.2% 16054 04-25-15 E
251 p0ker 1.2% 16055 04-25-15 E
252 ErrortheCucco 1.2% 16064 04-25-15 E
253 Arthas 1.1% 16067 04-25-15 E
253 Rikum22 1.1% 16067 04-25-15 E
255 sonic1001 1.1% 16075 04-25-15 E
256 WingedInsignia 1.1% 16079 04-25-15 E
257 syco1098 1.1% 16082 04-25-15 E
258 AJSIV 1.0% 16085 04-25-15 E
259 Sonic the Hedgehod16 1.0% 16087 04-25-15 E
260 sonicfan9 1.0% 16090 04-25-15 E
261 Calfd 1.0% 16091 04-25-15 E
262 BlackArmsShadow 0.9% 16102 04-25-15 E
263 HHNNBBHHN 0.9% 16103 04-25-15 E
264 themachoman202 0.9% 16107 04-25-15 E
265 Ben1502 0.9% 16113 04-25-15 E
266 Greham Adelphis 0.9% 16114 04-25-15 E
266 MastaToken 0.9% 16114 04-25-15 E
268 shadowblast63 Player Banned 0.9% 16115 04-25-15 E
269 Fivavoa 0.8% 16116 04-25-15 E
270 Mr. Jones 0.8% 16117 04-25-15 E
271 arcfx1985 0.8% 16119 04-25-15 E
271 darkstarblaze 0.8% 16119 04-25-15 E
271 ptorflaxendrosis 0.8% 16119 04-25-15 E
274 Gvozdevik 0.8% 16123 04-25-15 E
274 Knuckles 0.8% 16123 04-25-15 E
276 FlandreScarlet9999vr 0.8% 16124 04-25-15 E
277 Zeldocto 0.8% 16129 04-25-15 E
278 KaM Mark MaK 0.7% 16133 04-25-15 E
279 BeeAwwb 0.7% 16137 04-25-15 E
280 ShadouZaHejjihoggu 0.7% 16140 04-25-15 E
281 Sonic62 0.7% 16146 04-25-15 E
282 darkersupershadic 0.6% 16149 04-25-15 E
283 Sogeking 0.6% 16150 04-25-15 E
284 dragondragon18 0.6% 16153 04-25-15 E
284 Shadygamerfreak 0.6% 16153 04-25-15 E
286 Sarger001 0.6% 16154 04-25-15 E
286 SonicK100 0.6% 16154 04-25-15 E
288 Grady219 0.6% 16155 04-25-15 E
289 Jawaah 0.6% 16159 04-25-15 E
290 Antek 0.6% 16163 04-25-15 E
291 SilverK 0.6% 16164 04-25-15 E
292 Klaus 0.5% 16165 04-25-15 E
293 SpinDashMaster 0.5% 16169 04-25-15 E
294 BioShadow 0.5% 16170 04-25-15 E
295 Videogamer123 0.5% 16175 04-25-15 E
296 Egor305 0.4% 16189 04-25-15 E
296 oTaiIilLsS 0.4% 16189 04-25-15 E
298 Mad Andy 0.4% 16190 04-25-15 E
299 isaihtb11 0.4% 16191 04-25-15 E
300 OhNoes! 0.4% 16192 04-25-15 E
301 zaktu40 0.4% 16193 04-25-15 E
302 S-MS32X-S 0.4% 16195 04-25-15 E
303 gaara1234 0.4% 16196 04-25-15 E
304 gamed00d 0.3% 16197 04-25-15 E
305 Mister_Slick 0.3% 16207 04-25-15 E
306 Sonic06Fan 0.3% 16209 04-25-15 E
307 Rush Hero 0.3% 16210 04-25-15 E
308 SonicMega167 0.3% 16213 04-25-15 E
309 Iwannabelink 0.2% 16214 04-25-15 E
310 sonknuck23 0.2% 16219 04-25-15 E
311 DanielTheFalcon 0.2% 16224 04-25-15 E
311 gamer1245 0.2% 16224 04-25-15 E
313 Burningskull123 0.1% 16232 04-25-15 E
314 Sonicontherun 0.1% 16242 04-25-15 E
315 Lil_Dude 0.0% 16246 04-25-15 E
316 antiwwe 0.0% 16248 04-25-15 E
317 Cbwade15 0.0% 16252 04-25-15 E
317 Genuine Hedgehog 0.0% 16252 04-25-15 E
319 Tyrouble 0.0% 16255 04-25-15 E
320 MegabombBlade 0.0% 16262 04-25-15 E
320 neji_hyuuga 0.0% 16262 04-25-15 E
320 Over 0.0% 16262 04-25-15 E
320 sdj6707 Player Banned 0.0% 16262 04-25-15 E
320 Tran Sonic Fan Player Banned 0.0% 16262 04-25-15 E

This page is using the New Data Table System. [FUTURE]


-- Back to Normal Skin --
Game ID: 3 | Category ID: 10
Hits: 63,106 | Hits This Month: 213 | DB Calls: 16 | Mem Usage: 5.44 MB | Time: 0.12s | Printable

The Sonic Center v3.9
Copyright 2003-2011 by The Sonic Center Team.